createdAt,value
2022-10-17T00:02:12.223Z,13.97
2022-10-17T00:07:16.124Z,14.00
2022-10-17T00:12:18.702Z,13.97
2022-10-17T00:17:21.262Z,13.97
2022-10-17T00:22:25.214Z,13.96
2022-10-17T00:27:28.138Z,13.95
2022-10-17T00:32:31.092Z,13.94
2022-10-17T00:37:35.645Z,13.95
2022-10-17T00:42:38.261Z,13.92
2022-10-17T00:47:41.061Z,13.95
2022-10-17T00:52:45.525Z,13.91
2022-10-17T00:57:48.343Z,13.93
2022-10-17T01:02:50.951Z,13.92
2022-10-17T01:07:55.289Z,13.89
2022-10-17T01:13:04.300Z,13.91
2022-10-17T01:18:14.530Z,13.88
2022-10-17T01:23:32.064Z,13.84
2022-10-17T01:28:49.621Z,13.74
2022-10-17T01:34:01.568Z,13.73
2022-10-17T01:39:09.396Z,13.76
2022-10-17T01:44:14.892Z,13.80
2022-10-17T01:49:22.967Z,13.77
2022-10-17T01:54:27.136Z,13.73
2022-10-17T01:59:34.905Z,13.78
2022-10-17T02:04:38.898Z,13.75
2022-10-17T02:09:41.544Z,13.77
2022-10-17T02:14:55.095Z,13.77
2022-10-17T02:20:09.206Z,13.74
2022-10-17T02:25:16.194Z,13.72
2022-10-17T02:30:24.855Z,13.70
2022-10-17T02:35:31.831Z,13.58
2022-10-17T02:40:34.778Z,13.63
2022-10-17T02:45:38.831Z,13.63
2022-10-17T02:50:50.405Z,13.60
2022-10-17T02:55:55.105Z,13.59
2022-10-17T03:00:57.995Z,13.63
2022-10-17T03:06:02.019Z,13.61
2022-10-17T03:11:04.661Z,13.41
2022-10-17T03:16:09.551Z,13.39
2022-10-17T03:21:13.621Z,13.44
2022-10-17T03:26:16.460Z,13.57
2022-10-17T03:31:19.137Z,13.50
2022-10-17T03:36:24.346Z,13.29
2022-10-17T03:41:27.103Z,13.37
2022-10-17T03:46:30.163Z,13.26
2022-10-17T03:51:36.756Z,13.29
2022-10-17T03:56:44.732Z,13.40
2022-10-17T04:01:50.900Z,13.43
2022-10-17T04:06:56.034Z,13.15
2022-10-17T04:11:58.782Z,13.41
2022-10-17T04:17:01.773Z,13.23
2022-10-17T04:22:08.404Z,13.46
2022-10-17T04:27:13.226Z,13.17
2022-10-17T04:32:19.802Z,13.16
2022-10-17T04:37:46.617Z,13.17
2022-10-17T04:42:54.239Z,13.25
2022-10-17T04:48:01.955Z,13.17
2022-10-17T04:53:05.962Z,13.07
2022-10-17T04:58:08.716Z,13.11
2022-10-17T05:03:11.635Z,13.16
2022-10-17T05:08:15.715Z,13.27
2022-10-17T05:13:18.419Z,13.17
2022-10-17T05:18:21.195Z,13.00
2022-10-17T05:23:25.412Z,13.10
2022-10-17T05:28:28.383Z,13.31
2022-10-17T05:33:35.005Z,13.33
2022-10-17T05:38:39.166Z,13.33
2022-10-17T05:43:43.802Z,13.30
2022-10-17T05:48:48.727Z,13.28
2022-10-17T05:53:53.880Z,13.24
2022-10-17T05:59:02.643Z,13.19
2022-10-17T06:04:21.660Z,13.18
2022-10-17T06:09:28.598Z,13.21
2022-10-17T06:14:32.430Z,13.25
2022-10-17T06:19:38.003Z,13.45
2022-10-17T06:24:42.268Z,13.17
2022-10-17T06:29:44.904Z,13.34
2022-10-17T06:34:47.644Z,13.47
2022-10-17T06:39:52.595Z,13.28
2022-10-17T06:44:57.822Z,13.41
2022-10-17T06:50:17.597Z,13.61
2022-10-17T06:55:27.991Z,13.69
2022-10-17T07:00:50.995Z,13.79
2022-10-17T07:05:54.875Z,13.58
2022-10-17T07:10:59.643Z,14.07
2022-10-17T07:16:02.634Z,13.80
2022-10-17T07:21:08.526Z,13.86
2022-10-17T07:26:14.489Z,14.04
2022-10-17T07:31:19.321Z,14.38
2022-10-17T07:36:22.072Z,14.11
2022-10-17T07:41:26.738Z,14.52
2022-10-17T07:46:29.725Z,14.78
2022-10-17T07:51:32.406Z,14.70
2022-10-17T07:56:36.648Z,14.92
2022-10-17T08:01:39.344Z,14.95
2022-10-17T08:06:41.897Z,15.52
2022-10-17T08:11:46.279Z,15.65
2022-10-17T08:16:48.843Z,16.12
2022-10-17T08:21:52.286Z,15.82
2022-10-17T08:26:58.124Z,16.29
2022-10-17T08:32:02.353Z,16.15
2022-10-17T08:37:05.660Z,16.67
2022-10-17T08:42:26.342Z,16.73
2022-10-17T08:47:30.806Z,16.48
2022-10-17T08:52:37.863Z,17.00
2022-10-17T08:57:41.794Z,17.32
2022-10-17T09:02:51.928Z,17.20
2022-10-17T09:08:03.102Z,17.50
2022-10-17T09:13:19.530Z,17.70
2022-10-17T09:18:26.971Z,17.98
2022-10-17T09:23:32.990Z,18.44
2022-10-17T09:28:39.005Z,18.51
2022-10-17T09:33:53.989Z,18.70
2022-10-17T09:38:58.551Z,19.03
2022-10-17T09:44:12.882Z,19.07
2022-10-17T09:49:18.615Z,19.22
2022-10-17T09:54:23.498Z,19.18
2022-10-17T09:59:38.535Z,19.52
2022-10-17T10:05:03.805Z,19.39
2022-10-17T10:10:09.216Z,19.86
2022-10-17T10:15:35.353Z,20.16
2022-10-17T10:20:38.631Z,20.38
2022-10-17T10:25:53.490Z,20.26
2022-10-17T10:30:58.878Z,20.44
2022-10-17T10:36:03.670Z,20.66
2022-10-17T10:41:07.854Z,21.19
2022-10-17T10:46:20.493Z,21.32
2022-10-17T10:51:28.045Z,20.82
2022-10-17T10:56:34.581Z,20.80
2022-10-17T11:01:43.493Z,20.63
2022-10-17T11:06:46.561Z,20.51
2022-10-17T11:11:53.951Z,20.31
2022-10-17T11:17:04.016Z,20.34
2022-10-17T11:22:10.400Z,20.37
2022-10-17T11:27:12.844Z,20.28
2022-10-17T11:32:21.774Z,20.45
2022-10-17T11:37:27.456Z,20.44
2022-10-17T11:42:33.480Z,20.41
2022-10-17T11:47:43.442Z,20.46
2022-10-17T11:52:56.824Z,20.26
2022-10-17T11:58:13.176Z,20.10
2022-10-17T12:03:30.402Z,20.11
2022-10-17T12:08:39.164Z,20.13
2022-10-17T12:13:49.721Z,20.18
2022-10-17T12:19:24.744Z,20.22
2022-10-17T12:24:39.945Z,20.16
2022-10-17T12:29:42.542Z,20.20
2022-10-17T12:34:54.121Z,20.19
2022-10-17T12:39:56.740Z,20.15
2022-10-17T12:44:59.356Z,20.12
2022-10-17T12:50:03.315Z,20.06
2022-10-17T12:55:14.196Z,19.97
2022-10-17T13:00:21.345Z,19.93
2022-10-17T13:05:29.631Z,19.89
2022-10-17T13:10:34.231Z,19.95
2022-10-17T13:15:37.698Z,20.05
2022-10-17T13:20:41.605Z,20.10
2022-10-17T13:25:44.176Z,20.09
2022-10-17T13:30:49.622Z,20.27
2022-10-17T13:36:00.364Z,20.23
2022-10-17T13:41:33.706Z,20.23
2022-10-17T13:46:39.278Z,20.24
2022-10-17T13:51:45.775Z,20.23
2022-10-17T13:56:48.422Z,20.31
2022-10-17T14:01:52.090Z,20.39
2022-10-17T14:06:56.254Z,20.33
2022-10-17T14:12:02.136Z,20.28
2022-10-17T14:17:14.259Z,20.11
2022-10-17T14:22:19.487Z,20.05
2022-10-17T14:27:28.855Z,20.00
2022-10-17T14:37:44.776Z,19.92
2022-10-17T14:42:48.218Z,19.88
2022-10-17T14:47:51.486Z,19.85
2022-10-17T14:53:03.789Z,19.88
2022-10-17T14:58:17.555Z,19.86
2022-10-17T15:03:20.229Z,19.87
2022-10-17T15:08:25.223Z,19.86
2022-10-17T15:13:29.661Z,19.88
2022-10-17T15:18:34.025Z,19.93
2022-10-17T15:23:37.970Z,19.93
2022-10-17T15:28:40.595Z,19.86
2022-10-17T15:33:43.696Z,19.82
2022-10-17T15:38:47.767Z,19.83
2022-10-17T15:43:50.458Z,19.68
2022-10-17T15:48:53.478Z,19.68
2022-10-17T15:53:57.600Z,19.61
2022-10-17T15:59:00.261Z,19.56
2022-10-17T16:04:02.867Z,19.47
2022-10-17T16:09:06.774Z,19.39
2022-10-17T16:14:12.691Z,19.35
2022-10-17T16:19:16.194Z,19.30
2022-10-17T16:24:20.333Z,19.21
2022-10-17T16:29:22.963Z,19.14
2022-10-17T16:34:25.538Z,18.87
2022-10-17T16:39:29.481Z,18.65
2022-10-17T16:44:32.080Z,18.37
2022-10-17T16:49:34.702Z,18.27
2022-10-17T16:54:38.850Z,18.14
2022-10-17T16:59:42.482Z,18.02
2022-10-17T17:04:45.198Z,17.95
2022-10-17T17:09:49.127Z,17.92
2022-10-17T17:14:52.084Z,17.90
2022-10-17T17:19:55.531Z,17.89
2022-10-17T17:24:59.500Z,17.85
2022-10-17T17:30:02.124Z,17.83
2022-10-17T17:35:05.065Z,17.78
2022-10-17T17:40:10.183Z,17.77
2022-10-17T17:45:13.235Z,17.66
2022-10-17T17:50:15.894Z,17.71
2022-10-17T17:55:19.987Z,17.59
2022-10-17T18:00:22.573Z,17.61
2022-10-17T18:05:25.417Z,17.57
2022-10-17T18:10:30.223Z,17.57
2022-10-17T18:15:32.904Z,17.50
2022-10-17T18:20:36.039Z,17.53
2022-10-17T18:25:40.043Z,17.47
2022-10-17T18:30:42.624Z,17.44
2022-10-17T18:35:45.251Z,17.44
2022-10-17T18:40:50.781Z,17.32
2022-10-17T18:45:57.372Z,17.26
2022-10-17T18:50:59.858Z,17.23
2022-10-17T18:56:03.977Z,17.15
2022-10-17T19:01:09.353Z,17.16
2022-10-17T19:06:13.662Z,17.09
2022-10-17T19:11:19.530Z,17.08
2022-10-17T19:16:23.705Z,17.06
2022-10-17T19:21:26.488Z,17.06
2022-10-17T19:26:32.303Z,17.03
2022-10-17T19:31:36.400Z,17.02
2022-10-17T19:36:39.494Z,17.00
2022-10-17T19:41:44.059Z,17.01
2022-10-17T19:46:48.895Z,16.93
2022-10-17T19:51:51.498Z,16.97
2022-10-17T19:56:55.439Z,16.94
2022-10-17T20:01:58.106Z,16.97
2022-10-17T20:07:01.328Z,16.95
2022-10-17T20:12:05.484Z,16.82
2022-10-17T20:17:08.078Z,16.82
2022-10-17T20:22:10.693Z,16.81
2022-10-17T20:27:14.623Z,16.75
2022-10-17T20:32:17.230Z,16.76
2022-10-17T20:37:19.840Z,16.73
2022-10-17T20:42:23.771Z,16.67
2022-10-17T20:47:43.689Z,16.66
2022-10-17T20:52:48.485Z,16.60
2022-10-17T20:57:54.826Z,16.49
2022-10-17T21:02:58.990Z,16.42
2022-10-17T21:08:02.572Z,16.42
2022-10-17T21:13:06.475Z,16.42
2022-10-17T21:18:09.043Z,16.48
2022-10-17T21:23:11.640Z,16.46
2022-10-17T21:28:15.588Z,16.45
2022-10-17T21:33:18.180Z,16.45
2022-10-17T21:38:20.791Z,16.41
2022-10-17T21:43:24.726Z,16.44
2022-10-17T21:48:27.398Z,16.43
2022-10-17T21:53:30.540Z,16.39
2022-10-17T21:58:34.826Z,16.42
2022-10-17T22:03:42.597Z,16.42
2022-10-17T22:08:48.486Z,16.37
2022-10-17T22:13:55.900Z,16.39
2022-10-17T22:19:03.127Z,16.37
2022-10-17T22:24:11.165Z,16.35
2022-10-17T22:29:15.307Z,16.33
2022-10-17T22:34:18.556Z,16.32
2022-10-17T22:39:21.435Z,16.30
2022-10-17T22:44:28.014Z,16.27
2022-10-17T22:49:30.934Z,16.22
2022-10-17T22:54:33.709Z,16.21
2022-10-17T22:59:37.757Z,16.19
2022-10-17T23:04:41.237Z,16.17
2022-10-17T23:09:44.108Z,16.15
2022-10-17T23:14:48.112Z,16.11
2022-10-17T23:19:52.951Z,16.10
2022-10-17T23:24:58.135Z,16.08
2022-10-17T23:30:02.146Z,16.06
2022-10-17T23:35:04.926Z,16.05
2022-10-17T23:40:09.068Z,16.07
2022-10-17T23:45:13.420Z,16.08
2022-10-17T23:50:16.342Z,16.05
2022-10-17T23:55:18.962Z,16.04
